Time;durP1;ratioP1;P1;durP2;ratioP2;P2;SDS_P1;SDS_P2;PMS_P1;PMS_P2;Temp;Humidity;BMP_temperature;BMP_pressure;BME280_temperature;BME280_humidity;BME280_pressure;Samples;Min_cycle;Max_cycle;Signal;HPM_P1;HPM_P2
2021/09/29 00:04:33;;;;;;;10.30;8.40;;;;;;;9.43;79.87;99225.34;236013;1197;25107;-71
2021/09/29 00:09:36;;;;;;;15.60;8.80;;;;;;;9.41;79.85;99227.91;236120;1190;22463;-73
2021/09/29 00:14:40;;;;;;;12.20;8.90;;;;;;;9.37;79.66;99224.44;236065;1197;24040;-73
2021/09/29 00:20:06;;;;;;;12.30;9.20;;;;;;;9.31;79.77;99224.13;236076;1197;24034;-71
2021/09/29 00:25:14;;;;;;;13.80;9.10;;;;;;;9.25;79.83;99222.52;236080;1197;24120;-72
2021/09/29 00:30:17;;;;;;;12.30;7.90;;;;;;;9.22;79.90;99219.15;236059;1174;24162;-71
2021/09/29 00:35:20;;;;;;;13.60;9.30;;;;;;;9.17;79.86;99215.90;236122;1190;24088;-71
2021/09/29 00:40:23;;;;;;;12.00;9.00;;;;;;;9.09;79.74;99216.00;236586;1196;25301;-73
2021/09/29 00:45:25;;;;;;;12.70;9.30;;;;;;;9.03;80.02;99212.42;236436;1196;24098;-71
2021/09/29 00:50:28;;;;;;;14.10;9.80;;;;;;;8.97;79.91;99207.62;236180;1190;24268;-72
2021/09/29 00:55:30;;;;;;;12.00;9.00;;;;;;;8.90;80.05;99207.08;236109;1182;24098;-71
2021/09/29 01:00:32;;;;;;;13.30;9.50;;;;;;;8.87;80.16;99205.46;236477;1196;24072;-72
2021/09/29 01:05:40;;;;;;;14.10;9.20;;;;;;;8.87;80.45;99193.92;236084;1197;22539;-71
2021/09/29 01:10:46;;;;;;;10.30;8.60;;;;;;;8.82;80.23;99187.46;236105;1197;22460;-72
2021/09/29 01:15:54;;;;;;;10.60;8.80;;;;;;;8.77;80.34;99182.81;236034;1190;24065;-71
2021/09/29 01:21:01;;;;;;;12.40;8.80;;;;;;;8.72;80.35;99177.52;236066;1197;24652;-71
2021/09/29 01:26:21;;;;;;;13.10;9.10;;;;;;;8.68;80.69;99177.09;235954;1198;24056;-71
2021/09/29 01:31:24;;;;;;;11.10;8.10;;;;;;;8.69;80.61;99170.95;235784;1174;24072;-71
2021/09/29 01:36:28;;;;;;;11.80;9.10;;;;;;;8.68;80.67;99168.70;236236;1196;22433;-71
2021/09/29 01:41:31;;;;;;;12.00;8.80;;;;;;;8.64;80.70;99171.52;236301;1196;22419;-72
2021/09/29 01:46:34;;;;;;;9.60;8.40;;;;;;;8.59;80.54;99164.09;236311;1196;22602;-71
2021/09/29 01:51:44;;;;;;;10.30;8.40;;;;;;;8.55;80.34;99163.13;237087;1195;23108;-73
2021/09/29 01:56:48;;;;;;;14.10;9.60;;;;;;;8.50;80.59;99161.20;236406;1196;24168;-73
2021/09/29 02:01:52;;;;;;;14.30;9.40;;;;;;;8.42;80.60;99156.04;236167;1183;24158;-73
2021/09/29 02:06:56;;;;;;;13.30;9.00;;;;;;;8.33;80.55;99153.41;236235;1197;22530;-72
2021/09/29 02:11:58;;;;;;;15.50;9.10;;;;;;;8.27;80.65;99152.70;236040;1197;24086;-71
2021/09/29 02:17:02;;;;;;;14.10;9.30;;;;;;;8.26;81.02;99155.73;236158;1198;22468;-71
2021/09/29 02:22:04;;;;;;;11.20;8.90;;;;;;;8.27;81.23;99155.35;235801;1190;24032;-70
2021/09/29 02:27:07;;;;;;;12.50;9.00;;;;;;;8.23;80.95;99149.48;236063;1197;22452;-71
2021/09/29 02:32:09;;;;;;;14.30;8.60;;;;;;;8.19;80.92;99144.92;236055;1190;24307;-72
2021/09/29 02:37:12;;;;;;;10.80;8.60;;;;;;;8.12;80.85;99141.98;235961;1193;24105;-71
2021/09/29 02:42:14;;;;;;;16.00;10.30;;;;;;;8.05;80.91;99137.27;235935;1197;24483;-72
2021/09/29 02:47:17;;;;;;;15.40;10.50;;;;;;;8.00;80.82;99135.23;235822;1197;24040;-73
2021/09/29 02:52:20;;;;;;;13.80;9.90;;;;;;;7.96;80.96;99134.88;235949;1192;22451;-74
2021/09/29 02:57:22;;;;;;;13.60;10.40;;;;;;;7.92;81.25;99135.94;235910;1197;22447;-73
2021/09/29 03:02:25;;;;;;;16.50;11.00;;;;;;;7.83;80.97;99131.02;235906;1198;25943;-73
2021/09/29 03:07:27;;;;;;;16.60;11.90;;;;;;;7.77;81.38;99128.64;236012;1193;24107;-71
2021/09/29 03:12:30;;;;;;;15.70;11.10;;;;;;;7.76;81.57;99120.63;236050;1193;24197;-72
2021/09/29 03:17:33;;;;;;;17.90;12.10;;;;;;;7.71;81.53;99119.70;236095;1198;22506;-73
2021/09/29 03:22:35;;;;;;;16.10;11.60;;;;;;;7.62;81.35;99121.21;236145;1197;22500;-72
2021/09/29 03:27:38;;;;;;;17.30;11.80;;;;;;;7.52;81.28;99112.59;236142;1197;24115;-73
2021/09/29 03:32:42;;;;;;;16.70;11.60;;;;;;;7.43;81.21;99103.46;236130;1196;24091;-71
2021/09/29 03:37:44;;;;;;;14.50;11.40;;;;;;;7.39;81.42;99103.02;236268;1197;24152;-73
2021/09/29 03:42:47;;;;;;;16.00;11.00;;;;;;;7.35;81.49;99102.64;236012;1190;24060;-73
2021/09/29 03:47:49;;;;;;;17.50;11.40;;;;;;;7.31;81.71;99102.40;235947;1197;24142;-73
2021/09/29 03:52:52;;;;;;;16.90;11.80;;;;;;;7.29;81.68;99099.88;235993;1196;22574;-73
2021/09/29 03:57:54;;;;;;;16.10;10.70;;;;;;;7.26;81.82;99097.21;236073;1190;25201;-71
2021/09/29 04:02:57;;;;;;;16.40;11.10;;;;;;;7.25;82.14;99100.13;236054;1183;22415;-73
2021/09/29 04:07:59;;;;;;;15.20;11.60;;;;;;;7.16;81.64;99098.54;236108;1197;24116;-74
2021/09/29 04:13:02;;;;;;;14.50;10.60;;;;;;;7.11;81.73;99097.16;235778;1196;26360;-71
2021/09/29 04:18:06;;;;;;;14.50;11.10;;;;;;;7.06;81.86;99090.01;236067;1197;23633;-73
2021/09/29 04:23:09;;;;;;;14.10;9.70;;;;;;;7.02;81.75;99079.64;235992;1197;24040;-71
2021/09/29 04:28:26;;;;;;;15.80;9.60;;;;;;;6.96;82.16;99080.25;236192;1197;22436;-72
2021/09/29 04:33:39;;;;;;;12.50;10.10;;;;;;;6.91;81.99;99084.52;236248;1197;24153;-73
2021/09/29 04:38:45;;;;;;;20.50;11.40;;;;;;;6.91;82.33;99085.90;236434;1197;25173;-73
2021/09/29 04:43:48;;;;;;;11.40;9.50;;;;;;;6.94;82.08;99080.98;236040;1190;24201;-72
2021/09/29 04:48:50;;;;;;;15.90;9.60;;;;;;;6.94;82.23;99083.96;236241;1197;24177;-73
2021/09/29 04:53:53;;;;;;;13.40;10.00;;;;;;;6.94;82.53;99082.63;236414;1183;23982;-71
2021/09/29 04:58:56;;;;;;;15.20;10.40;;;;;;;6.96;82.36;99091.27;236154;1190;25243;-74
2021/09/29 05:03:58;;;;;;;14.00;9.60;;;;;;;6.97;82.04;99095.59;236383;1183;24003;-72
2021/09/29 05:09:03;;;;;;;15.10;10.50;;;;;;;6.98;82.66;99097.48;236357;1196;25363;-73
2021/09/29 05:14:08;;;;;;;15.60;10.50;;;;;;;7.04;82.64;99094.63;236516;1191;24132;-73
2021/09/29 05:19:14;;;;;;;13.90;9.60;;;;;;;7.12;82.72;99091.85;236174;1197;22454;-73
2021/09/29 05:24:23;;;;;;;15.00;10.10;;;;;;;7.20;82.65;99099.40;236145;1191;24072;-73
2021/09/29 05:29:31;;;;;;;11.20;8.90;;;;;;;7.28;82.58;99107.82;236346;1190;23193;-73
2021/09/29 05:34:34;;;;;;;11.90;9.70;;;;;;;7.34;82.53;99108.33;236653;1183;25256;-72
2021/09/29 05:39:37;;;;;;;12.30;8.60;;;;;;;7.42;82.17;99105.81;236470;1197;24078;-74
2021/09/29 05:44:40;;;;;;;11.80;7.90;;;;;;;7.52;82.37;99109.91;236726;1196;22490;-71
2021/09/29 05:49:42;;;;;;;10.60;7.40;;;;;;;7.62;82.24;99110.91;236770;1190;22438;-70
2021/09/29 05:54:45;;;;;;;11.20;7.70;;;;;;;7.72;82.25;99111.07;236326;1191;22466;-71
2021/09/29 05:59:48;;;;;;;10.90;8.10;;;;;;;7.86;82.22;99115.70;236492;1197;22842;-74
2021/09/29 06:04:50;;;;;;;12.00;8.10;;;;;;;7.96;81.93;99111.09;237207;1190;24245;-75
2021/09/29 06:09:53;;;;;;;12.20;8.30;;;;;;;8.07;81.78;99107.92;237516;1190;22414;-72
2021/09/29 06:14:56;;;;;;;13.10;8.10;;;;;;;8.29;81.75;99105.24;237297;1196;24032;-72
2021/09/29 06:20:19;;;;;;;13.50;9.60;;;;;;;8.52;81.51;99105.17;237048;1190;24078;-72
2021/09/29 06:25:36;;;;;;;13.00;8.70;;;;;;;8.78;81.34;99109.52;236699;1190;22615;-71
2021/09/29 06:30:39;;;;;;;12.20;8.20;;;;;;;9.00;80.94;99109.44;236362;1192;25307;-71
2021/09/29 06:35:41;;;;;;;11.90;8.70;;;;;;;9.20;80.65;99109.14;236591;1190;24188;-70
2021/09/29 06:40:45;;;;;;;11.40;8.80;;;;;;;9.38;80.36;99110.06;237517;1190;22450;-71
2021/09/29 06:45:47;;;;;;;15.80;10.10;;;;;;;9.53;80.09;99114.29;236777;1190;22499;-72
2021/09/29 06:50:50;;;;;;;15.90;11.00;;;;;;;9.66;79.73;99117.66;236730;1182;24042;-74
2021/09/29 06:55:52;;;;;;;14.40;10.00;;;;;;;9.70;79.09;99120.16;236891;1192;24097;-71
2021/09/29 07:00:55;;;;;;;15.30;11.10;;;;;;;9.74;78.91;99127.04;236747;1196;25186;-72
2021/09/29 07:05:58;;;;;;;16.00;11.60;;;;;;;9.80;78.63;99129.60;236875;1190;24166;-73
2021/09/29 07:11:34;;;;;;;19.20;12.10;;;;;;;9.91;78.87;99131.21;237000;1190;24025;-72
2021/09/29 07:16:52;;;;;;;20.00;12.60;;;;;;;10.04;78.79;99126.46;237081;1197;24122;-72
2021/09/29 07:21:55;;;;;;;19.50;14.10;;;;;;;10.24;78.59;99128.56;236858;1190;22875;-71
2021/09/29 07:26:57;;;;;;;27.70;18.80;;;;;;;10.31;78.14;99125.11;237093;1197;22534;-72
2021/09/29 07:31:59;;;;;;;29.80;19.10;;;;;;;10.40;78.09;99129.19;236780;1190;22512;-72
2021/09/29 07:37:02;;;;;;;30.00;21.60;;;;;;;10.52;77.78;99132.11;236694;1190;22514;-74
2021/09/29 07:42:05;;;;;;;22.80;17.10;;;;;;;10.54;77.37;99123.31;237381;1184;25232;-73
2021/09/29 07:47:09;;;;;;;26.90;19.20;;;;;;;10.55;77.22;99119.23;237339;1190;26126;-74
2021/09/29 07:52:12;;;;;;;32.10;21.90;;;;;;;10.68;77.15;99115.38;237219;1196;24205;-72
2021/09/29 07:57:14;;;;;;;29.40;20.30;;;;;;;10.74;76.78;99109.96;236846;1190;22830;-73
2021/09/29 08:02:17;;;;;;;29.50;20.50;;;;;;;10.72;76.29;99108.86;236337;1196;24104;-74
2021/09/29 08:07:20;;;;;;;28.70;20.70;;;;;;;10.65;75.97;99109.08;236432;1190;24047;-72
2021/09/29 08:12:23;;;;;;;31.20;19.40;;;;;;;10.53;76.07;99109.08;236434;1197;25076;-73
2021/09/29 08:17:27;;;;;;;32.10;21.80;;;;;;;10.44;76.31;99116.20;235944;1192;25097;-74
2021/09/29 08:22:29;;;;;;;33.20;22.90;;;;;;;10.44;76.18;99114.81;236481;1190;22474;-72
2021/09/29 08:27:38;;;;;;;32.80;21.20;;;;;;;10.55;76.27;99115.21;236502;1192;25180;-74
2021/09/29 08:38:03;;;;;;;34.30;24.10;;;;;;;10.91;76.37;99114.58;237022;1196;24081;-72
2021/09/29 09:15:51;;;;;;;27.70;18.80;;;;;;;12.51;74.03;99110.70;236459;1190;22380;-73
2021/09/29 09:21:15;;;;;;;29.30;20.90;;;;;;;12.67;73.55;99105.72;236387;1197;22433;-73
2021/09/29 09:27:09;;;;;;;30.30;23.10;;;;;;;12.90;73.25;99108.55;236480;1190;24097;-75
2021/09/29 09:32:13;;;;;;;32.50;20.40;;;;;;;13.16;73.11;99107.23;236584;1190;22456;-74
2021/09/29 09:37:16;;;;;;;27.10;19.80;;;;;;;13.32;72.37;99115.30;236656;1197;22609;-75
2021/09/29 09:42:20;;;;;;;24.10;18.60;;;;;;;13.43;72.02;99111.08;236663;1190;25173;-75
2021/09/29 09:47:26;;;;;;;25.70;18.80;;;;;;;13.46;71.66;99103.80;236318;1196;24112;-73
2021/09/29 09:52:46;;;;;;;23.30;16.50;;;;;;;13.60;71.76;99106.39;237396;1190;22599;-72
2021/09/29 09:58:06;;;;;;;22.60;17.50;;;;;;;13.77;71.23;99105.44;236978;1190;24205;-74
2021/09/29 10:03:27;;;;;;;25.20;17.40;;;;;;;13.99;71.17;99098.68;236763;1189;24085;-74
2021/09/29 10:08:30;;;;;;;23.30;17.30;;;;;;;14.19;71.08;99093.33;237060;1197;22434;-74
2021/09/29 10:14:18;;;;;;;21.50;16.30;;;;;;;14.46;70.81;99089.05;236686;1191;22997;-73
2021/09/29 10:37:26;;;;;;;19.50;14.60;;;;;;;15.16;68.77;99083.49;236325;1197;24062;-73
2021/09/29 10:43:12;;;;;;;19.70;15.20;;;;;;;15.15;68.66;99080.14;236429;1197;22798;-74
2021/09/29 11:36:03;;;;;;;21.80;14.30;;;;;;;16.49;66.38;99050.25;236474;1196;24063;-73
2021/09/29 12:13:55;;;;;;;26.10;17.30;;;;;;;17.68;64.65;99033.04;236592;1197;22447;-74
2021/09/29 12:19:05;;;;;;;21.50;15.70;;;;;;;17.79;64.26;99038.56;237488;1190;22443;-73
2021/09/29 12:24:24;;;;;;;19.20;14.60;;;;;;;17.85;64.00;99041.86;237353;1197;22574;-73
2021/09/29 12:29:35;;;;;;;17.30;13.80;;;;;;;17.87;63.84;99044.36;236945;1197;22430;-74
2021/09/29 12:40:12;;;;;;;20.70;16.10;;;;;;;17.85;63.77;99038.10;237103;1184;24090;-73
2021/09/29 12:45:25;;;;;;;21.70;14.60;;;;;;;17.95;63.79;99037.19;236725;1197;22429;-73
2021/09/29 12:55:57;;;;;;;18.40;14.10;;;;;;;18.31;63.73;99042.41;237101;1196;23620;-74
2021/09/29 13:01:00;;;;;;;23.40;16.60;;;;;;;18.37;63.27;99034.02;237041;1197;23975;-72
2021/09/29 13:06:10;;;;;;;24.60;19.20;;;;;;;18.50;63.58;99038.27;237219;1190;23027;-75
2021/09/29 13:11:17;;;;;;;17.80;14.80;;;;;;;18.67;63.26;99033.78;237490;1190;24086;-75
2021/09/29 13:16:20;;;;;;;18.30;13.70;;;;;;;18.77;63.24;99040.19;237290;1190;25283;-75
2021/09/29 13:21:39;;;;;;;20.60;15.30;;;;;;;18.88;62.83;99043.89;237258;1198;25130;-75
2021/09/29 13:37:06;;;;;;;21.70;16.20;;;;;;;18.34;62.49;99038.48;237168;1196;24158;-76
2021/09/29 13:42:09;;;;;;;18.90;16.20;;;;;;;18.21;62.71;99031.68;237001;1184;24124;-76
2021/09/29 13:47:12;;;;;;;20.10;15.80;;;;;;;18.19;63.10;99026.95;237197;1197;22835;-75
2021/09/29 13:52:16;;;;;;;19.80;16.30;;;;;;;18.33;63.43;99023.11;237790;1197;22524;-78
2021/09/29 13:57:42;;;;;;;18.50;15.80;;;;;;;18.56;63.36;99022.82;237437;1197;22412;-76
2021/09/29 14:03:36;;;;;;;21.30;15.80;;;;;;;18.60;62.38;99025.55;237637;1197;22449;-76
2021/09/29 14:14:34;;;;;;;;;;;;;;;;;;;;;
2021/09/29 14:30:32;;;;;;;23.50;17.50;;;;;;;17.46;63.61;99014.04;236718;1194;22485;-77
2021/09/29 14:35:40;;;;;;;23.80;17.90;;;;;;;17.38;63.98;99008.77;236428;1197;22559;-76
2021/09/29 14:40:43;;;;;;;25.70;16.80;;;;;;;17.32;64.26;99013.02;236293;1197;22452;-76
2021/09/29 14:45:45;;;;;;;25.40;18.20;;;;;;;17.27;64.53;99011.45;236057;1197;22430;-76
2021/09/29 14:50:50;;;;;;;25.00;17.80;;;;;;;17.20;64.71;99016.27;235932;1197;25179;-78
2021/09/29 14:55:53;;;;;;;21.40;15.80;;;;;;;17.11;64.86;99014.15;236377;1197;24056;-74
2021/09/29 15:00:55;;;;;;;24.30;17.50;;;;;;;17.04;65.04;99013.58;236283;1197;24162;-77
2021/09/29 15:05:59;;;;;;;25.50;17.90;;;;;;;16.94;65.25;99015.48;236479;1190;22663;-76
2021/09/29 15:11:03;;;;;;;25.80;19.20;;;;;;;16.84;65.42;99023.23;236412;1197;24606;-75
2021/09/29 15:16:11;;;;;;;23.50;17.40;;;;;;;16.74;65.79;99022.00;236249;1198;22833;-76
2021/09/29 15:21:28;;;;;;;24.40;17.60;;;;;;;16.69;66.09;99024.93;235992;1198;22490;-76
2021/09/29 15:53:08;;;;;;;29.30;19.00;;;;;;;16.23;67.45;99044.08;236541;1197;22468;-77
2021/09/29 16:13:44;;;;;;;30.30;19.30;;;;;;;15.97;68.40;99052.11;236479;1190;22553;-77
2021/09/29 16:34:45;;;;;;;24.30;17.10;;;;;;;15.73;68.97;99060.83;236215;1197;25308;-74
2021/09/29 16:39:48;;;;;;;22.50;15.60;;;;;;;15.68;69.12;99066.29;236204;1193;22445;-76
2021/09/29 16:45:06;;;;;;;23.80;16.20;;;;;;;15.64;69.14;99063.52;236182;1197;24583;-76
2021/09/29 16:50:49;;;;;;;26.20;16.80;;;;;;;15.54;69.06;99063.88;236402;1190;22456;-76
2021/09/29 16:55:51;;;;;;;24.70;17.40;;;;;;;15.45;69.25;99074.71;236129;1190;22971;-73
2021/09/29 17:00:58;;;;;;;26.90;16.60;;;;;;;15.37;69.34;99078.34;236287;1190;24081;-76
2021/09/29 17:06:01;;;;;;;30.90;19.10;;;;;;;15.32;69.39;99077.71;236494;1197;24663;-77
2021/09/29 17:11:08;;;;;;;29.00;18.40;;;;;;;15.32;69.74;99075.98;236352;1190;22434;-75
2021/09/29 17:16:24;;;;;;;27.20;19.30;;;;;;;15.33;69.97;99076.99;236133;1197;25276;-74
2021/09/29 17:21:27;;;;;;;28.20;19.60;;;;;;;15.26;70.04;99080.91;236172;1197;22461;-75
2021/09/29 17:26:30;;;;;;;30.50;19.90;;;;;;;15.22;70.50;99081.02;236166;1197;25021;-77
2021/09/29 17:52:49;;;;;;;29.60;21.60;;;;;;;15.09;71.44;99090.58;236280;1196;24590;-76
2021/09/29 17:57:52;;;;;;;32.20;22.50;;;;;;;15.01;71.59;99092.30;236756;1196;24148;-76
2021/09/29 18:03:00;;;;;;;33.10;23.20;;;;;;;14.97;71.92;99093.16;236767;1190;24116;-76
2021/09/29 18:08:04;;;;;;;32.60;23.60;;;;;;;14.95;72.14;99093.49;236764;1190;23481;-75
2021/09/29 18:13:14;;;;;;;34.10;22.40;;;;;;;14.82;72.19;99094.73;236476;1198;22503;-74
2021/09/29 18:18:19;;;;;;;35.60;24.40;;;;;;;14.79;72.50;99092.41;237013;1196;22473;-74
2021/09/29 18:23:22;;;;;;;43.20;25.90;;;;;;;14.78;72.75;99093.59;236636;1197;24145;-76
2021/09/29 18:28:24;;;;;;;38.80;24.50;;;;;;;14.71;72.87;99098.56;236188;1198;25054;-75
2021/09/29 18:33:28;;;;;;;38.70;24.30;;;;;;;14.64;72.86;99099.54;236878;1174;22446;-77
2021/09/29 18:38:31;;;;;;;38.70;24.40;;;;;;;14.56;73.07;99103.25;236392;1196;22422;-73
2021/09/29 18:43:54;;;;;;;45.70;29.50;;;;;;;14.50;73.27;99106.80;236343;1197;24205;-76
2021/09/29 18:49:08;;;;;;;49.80;29.90;;;;;;;14.46;73.52;99107.64;236624;1195;23999;-76
2021/09/29 19:10:53;;;;;;;37.20;25.60;;;;;;;14.59;74.17;99106.15;236313;1197;24143;-75
2021/09/29 19:15:59;;;;;;;35.70;23.90;;;;;;;14.54;73.96;99109.33;236277;1197;24040;-74
2021/09/29 19:21:05;;;;;;;33.20;21.50;;;;;;;14.54;74.08;99114.30;236518;1193;24078;-76
2021/09/29 19:26:08;;;;;;;36.10;25.80;;;;;;;14.40;73.76;99118.23;236913;1196;22430;-76
2021/09/29 19:31:10;;;;;;;38.20;26.00;;;;;;;14.23;73.82;99121.86;236055;1192;22430;-74
2021/09/29 19:36:14;;;;;;;44.40;26.60;;;;;;;14.04;74.11;99124.42;236308;1190;22441;-75
2021/09/29 19:41:17;;;;;;;51.10;32.00;;;;;;;13.94;74.49;99122.06;236493;1197;22439;-74
2021/09/29 19:46:33;;;;;;;55.90;35.80;;;;;;;13.85;74.77;99120.95;236227;1190;25219;-76
2021/09/29 20:07:43;;;;;;;49.40;31.10;;;;;;;13.70;75.76;99120.87;236857;1194;24685;-75
2021/09/29 20:12:48;;;;;;;51.30;34.00;;;;;;;13.68;76.02;99125.11;236619;1196;22723;-74
2021/09/29 20:17:56;;;;;;;53.80;33.70;;;;;;;13.67;76.18;99127.63;236446;1183;24058;-74
2021/09/29 20:23:12;;;;;;;48.00;31.50;;;;;;;13.62;76.54;99135.66;236306;1196;24082;-76
2021/09/29 20:28:35;;;;;;;54.40;32.40;;;;;;;13.61;76.58;99136.20;236324;1196;22938;-77
2021/09/29 20:44:33;;;;;;;48.90;29.40;;;;;;;13.73;77.02;99145.04;236021;1197;22715;-75
2021/09/29 20:49:43;;;;;;;45.90;29.00;;;;;;;13.70;77.11;99148.17;236329;1192;22435;-74
2021/09/29 20:54:47;;;;;;;47.60;30.50;;;;;;;13.71;77.29;99151.51;236327;1197;24100;-74
2021/09/29 20:59:50;;;;;;;48.20;29.30;;;;;;;13.67;77.28;99153.56;236343;1193;24020;-76
2021/09/29 21:04:53;;;;;;;41.80;26.70;;;;;;;13.66;77.49;99152.45;236418;1193;22499;-74
2021/09/29 21:10:01;;;;;;;41.20;27.80;;;;;;;13.66;77.68;99156.03;236135;1196;22570;-75
2021/09/29 21:20:11;;;;;;;41.10;26.70;;;;;;;13.63;78.13;99165.71;236144;1197;25035;-75
2021/09/29 21:25:14;;;;;;;39.30;25.30;;;;;;;13.62;78.31;99165.79;236529;1196;24086;-75
2021/09/29 21:30:24;;;;;;;36.90;25.10;;;;;;;13.64;78.51;99165.37;236175;1190;22592;-77
2021/09/29 21:35:40;;;;;;;40.30;27.80;;;;;;;13.67;78.67;99170.36;236254;1198;22481;-75
2021/09/29 23:11:08;;;;;;;28.10;20.60;;;;;;;13.68;83.06;99205.23;237018;1196;22440;-76
2021/09/29 23:32:50;;;;;;;27.00;18.20;;;;;;;13.65;84.57;99216.81;236015;1197;22450;-76
2021/09/29 23:37:52;;;;;;;25.30;18.30;;;;;;;13.72;84.74;99218.84;235888;1198;24080;-76
2021/09/29 23:43:07;;;;;;;27.50;19.50;;;;;;;13.79;84.71;99220.97;235987;1193;24042;-75
2021/09/29 23:48:09;;;;;;;28.80;20.20;;;;;;;13.82;84.81;99224.85;236030;1190;24072;-73
2021/09/29 23:53:12;;;;;;;27.70;19.20;;;;;;;13.84;84.99;99228.08;236176;1197;22465;-75
2021/09/29 23:58:15;;;;;;;27.00;18.30;;;;;;;13.89;85.05;99235.92;236243;1190;23990;-75
